sensor_id;sensor_type;location;lat;lon;timestamp;P1;durP1;ratioP1;P2;durP2;ratioP2
1062;SDS011;520;50.932;6.962;2023-11-21T00:00:53;4.43;;;3.83;;
1062;SDS011;520;50.932;6.962;2023-11-21T00:03:51;5.90;;;4.00;;
1062;SDS011;520;50.932;6.962;2023-11-21T00:06:25;4.80;;;3.43;;
1062;SDS011;520;50.932;6.962;2023-11-21T00:09:17;5.60;;;3.63;;
1062;SDS011;520;50.932;6.962;2023-11-21T00:12:00;3.90;;;3.60;;
1062;SDS011;520;50.932;6.962;2023-11-21T00:14:42;6.57;;;4.23;;
1062;SDS011;520;50.932;6.962;2023-11-21T00:17:18;4.57;;;3.70;;
1062;SDS011;520;50.932;6.962;2023-11-21T00:19:54;6.80;;;3.83;;
1062;SDS011;520;50.932;6.962;2023-11-21T00:25:53;6.33;;;4.73;;
1062;SDS011;520;50.932;6.962;2023-11-21T00:28:37;7.20;;;5.20;;
1062;SDS011;520;50.932;6.962;2023-11-21T00:31:24;6.93;;;5.57;;
1062;SDS011;520;50.932;6.962;2023-11-21T00:34:04;6.90;;;5.23;;
1062;SDS011;520;50.932;6.962;2023-11-21T00:36:42;12.60;;;5.90;;
1062;SDS011;520;50.932;6.962;2023-11-21T00:39:31;6.43;;;5.67;;
1062;SDS011;520;50.932;6.962;2023-11-21T00:42:19;5.90;;;5.23;;
1062;SDS011;520;50.932;6.962;2023-11-21T00:45:02;6.97;;;6.10;;
1062;SDS011;520;50.932;6.962;2023-11-21T00:47:33;10.43;;;6.47;;
1062;SDS011;520;50.932;6.962;2023-11-21T00:50:22;7.40;;;6.70;;
1062;SDS011;520;50.932;6.962;2023-11-21T00:53:16;6.50;;;5.80;;
1062;SDS011;520;50.932;6.962;2023-11-21T00:56:08;7.80;;;5.60;;
1062;SDS011;520;50.932;6.962;2023-11-21T00:58:59;10.00;;;5.77;;
1062;SDS011;520;50.932;6.962;2023-11-21T01:01:34;8.50;;;7.50;;
1062;SDS011;520;50.932;6.962;2023-11-21T01:04:18;8.20;;;6.10;;
1062;SDS011;520;50.932;6.962;2023-11-21T01:07:11;8.87;;;6.47;;
1062;SDS011;520;50.932;6.962;2023-11-21T01:10:02;7.27;;;6.47;;
1062;SDS011;520;50.932;6.962;2023-11-21T01:12:55;8.97;;;6.13;;
1062;SDS011;520;50.932;6.962;2023-11-21T01:15:50;6.67;;;5.97;;
1062;SDS011;520;50.932;6.962;2023-11-21T01:18:30;9.83;;;5.60;;
1062;SDS011;520;50.932;6.962;2023-11-21T01:21:11;9.13;;;7.00;;
1062;SDS011;520;50.932;6.962;2023-11-21T01:23:44;7.03;;;6.20;;
1062;SDS011;520;50.932;6.962;2023-11-21T01:26:23;9.50;;;6.47;;
1062;SDS011;520;50.932;6.962;2023-11-21T01:28:58;10.30;;;7.13;;
1062;SDS011;520;50.932;6.962;2023-11-21T01:31:45;9.87;;;6.87;;
1062;SDS011;520;50.932;6.962;2023-11-21T01:34:30;13.00;;;6.50;;
1062;SDS011;520;50.932;6.962;2023-11-21T01:37:14;8.03;;;6.10;;
1062;SDS011;520;50.932;6.962;2023-11-21T01:39:51;7.73;;;6.60;;
1062;SDS011;520;50.932;6.962;2023-11-21T01:42:38;9.67;;;6.33;;
1062;SDS011;520;50.932;6.962;2023-11-21T01:45:25;7.97;;;6.37;;
1062;SDS011;520;50.932;6.962;2023-11-21T01:48:03;10.23;;;6.80;;
1062;SDS011;520;50.932;6.962;2023-11-21T01:50:42;9.20;;;6.03;;
1062;SDS011;520;50.932;6.962;2023-11-21T01:53:12;7.20;;;6.50;;
1062;SDS011;520;50.932;6.962;2023-11-21T01:55:59;8.70;;;6.30;;
1062;SDS011;520;50.932;6.962;2023-11-21T01:58:50;9.13;;;6.63;;
1062;SDS011;520;50.932;6.962;2023-11-21T02:04:35;8.93;;;6.27;;
1062;SDS011;520;50.932;6.962;2023-11-21T02:07:10;7.30;;;5.83;;
1062;SDS011;520;50.932;6.962;2023-11-21T02:10:05;10.77;;;6.50;;
1062;SDS011;520;50.932;6.962;2023-11-21T02:13:03;7.50;;;6.10;;
1062;SDS011;520;50.932;6.962;2023-11-21T02:15:46;7.70;;;6.97;;
1062;SDS011;520;50.932;6.962;2023-11-21T02:18:39;8.77;;;7.20;;
1062;SDS011;520;50.932;6.962;2023-11-21T02:21:36;8.73;;;7.00;;
1062;SDS011;520;50.932;6.962;2023-11-21T02:24:26;7.47;;;6.70;;
1062;SDS011;520;50.932;6.962;2023-11-21T02:27:03;7.87;;;6.73;;
1062;SDS011;520;50.932;6.962;2023-11-21T02:29:41;11.73;;;7.73;;
1062;SDS011;520;50.932;6.962;2023-11-21T02:32:14;9.20;;;7.60;;
1062;SDS011;520;50.932;6.962;2023-11-21T02:34:55;11.23;;;8.30;;
1062;SDS011;520;50.932;6.962;2023-11-21T02:37:39;10.90;;;8.90;;
1062;SDS011;520;50.932;6.962;2023-11-21T02:40:15;10.47;;;9.00;;
1062;SDS011;520;50.932;6.962;2023-11-21T02:43:06;10.70;;;8.60;;
1062;SDS011;520;50.932;6.962;2023-11-21T02:45:45;10.10;;;8.43;;
1062;SDS011;520;50.932;6.962;2023-11-21T02:48:36;14.30;;;9.50;;
1062;SDS011;520;50.932;6.962;2023-11-21T02:51:17;13.70;;;9.23;;
1062;SDS011;520;50.932;6.962;2023-11-21T02:54:35;10.73;;;8.60;;
1062;SDS011;520;50.932;6.962;2023-11-21T02:57:19;14.70;;;8.90;;
1062;SDS011;520;50.932;6.962;2023-11-21T03:00:10;10.70;;;8.77;;
1062;SDS011;520;50.932;6.962;2023-11-21T03:03:00;17.77;;;10.60;;
1062;SDS011;520;50.932;6.962;2023-11-21T03:05:46;13.20;;;10.90;;
1062;SDS011;520;50.932;6.962;2023-11-21T03:08:22;13.23;;;10.20;;
1062;SDS011;520;50.932;6.962;2023-11-21T03:10:59;12.20;;;10.00;;
1062;SDS011;520;50.932;6.962;2023-11-21T03:13:30;11.80;;;8.93;;
1062;SDS011;520;50.932;6.962;2023-11-21T03:16:03;9.80;;;8.63;;
1062;SDS011;520;50.932;6.962;2023-11-21T03:22:03;14.77;;;7.90;;
1062;SDS011;520;50.932;6.962;2023-11-21T03:24:39;12.00;;;7.00;;
1062;SDS011;520;50.932;6.962;2023-11-21T03:27:13;11.77;;;8.57;;
1062;SDS011;520;50.932;6.962;2023-11-21T03:29:55;9.27;;;6.97;;
1062;SDS011;520;50.932;6.962;2023-11-21T03:32:35;10.43;;;7.70;;
1062;SDS011;520;50.932;6.962;2023-11-21T03:35:22;11.77;;;7.93;;
1062;SDS011;520;50.932;6.962;2023-11-21T03:38:15;10.87;;;7.37;;
1062;SDS011;520;50.932;6.962;2023-11-21T03:40:49;11.33;;;8.00;;
1062;SDS011;520;50.932;6.962;2023-11-21T03:43:23;8.80;;;7.60;;
1062;SDS011;520;50.932;6.962;2023-11-21T03:45:53;8.53;;;7.63;;
1062;SDS011;520;50.932;6.962;2023-11-21T03:51:27;11.60;;;8.60;;
1062;SDS011;520;50.932;6.962;2023-11-21T03:54:10;9.53;;;7.70;;
1062;SDS011;520;50.932;6.962;2023-11-21T03:57:06;10.80;;;8.00;;
1062;SDS011;520;50.932;6.962;2023-11-21T04:00:02;9.87;;;7.83;;
1062;SDS011;520;50.932;6.962;2023-11-21T04:06:14;11.00;;;8.10;;
1062;SDS011;520;50.932;6.962;2023-11-21T04:09:13;11.50;;;8.20;;
1062;SDS011;520;50.932;6.962;2023-11-21T04:11:57;10.30;;;9.07;;
1062;SDS011;520;50.932;6.962;2023-11-21T04:14:38;12.57;;;9.80;;
1062;SDS011;520;50.932;6.962;2023-11-21T04:17:17;12.80;;;9.17;;
1062;SDS011;520;50.932;6.962;2023-11-21T04:20:17;10.80;;;7.87;;
1062;SDS011;520;50.932;6.962;2023-11-21T04:22:55;13.57;;;8.53;;
1062;SDS011;520;50.932;6.962;2023-11-21T04:28:29;16.80;;;9.53;;
1062;SDS011;520;50.932;6.962;2023-11-21T04:31:23;11.50;;;8.93;;
1062;SDS011;520;50.932;6.962;2023-11-21T04:34:09;15.20;;;9.00;;
1062;SDS011;520;50.932;6.962;2023-11-21T04:37:05;14.27;;;9.90;;
1062;SDS011;520;50.932;6.962;2023-11-21T04:39:48;11.33;;;8.20;;
1062;SDS011;520;50.932;6.962;2023-11-21T04:42:34;11.53;;;9.30;;
1062;SDS011;520;50.932;6.962;2023-11-21T04:45:30;18.33;;;10.60;;
1062;SDS011;520;50.932;6.962;2023-11-21T04:48:07;12.60;;;9.03;;
1062;SDS011;520;50.932;6.962;2023-11-21T04:51:03;11.97;;;9.00;;
1062;SDS011;520;50.932;6.962;2023-11-21T04:53:51;9.73;;;8.27;;
1062;SDS011;520;50.932;6.962;2023-11-21T04:56:53;12.30;;;8.00;;
1062;SDS011;520;50.932;6.962;2023-11-21T04:59:55;11.73;;;7.87;;
1062;SDS011;520;50.932;6.962;2023-11-21T05:03:16;12.33;;;8.03;;
1062;SDS011;520;50.932;6.962;2023-11-21T05:06:05;13.23;;;8.10;;
1062;SDS011;520;50.932;6.962;2023-11-21T05:08:52;11.63;;;8.60;;
1062;SDS011;520;50.932;6.962;2023-11-21T05:11:37;11.90;;;8.13;;
1062;SDS011;520;50.932;6.962;2023-11-21T05:14:24;10.43;;;8.00;;
1062;SDS011;520;50.932;6.962;2023-11-21T05:17:04;17.17;;;8.23;;
1062;SDS011;520;50.932;6.962;2023-11-21T05:22:41;11.43;;;8.33;;
1062;SDS011;520;50.932;6.962;2023-11-21T05:25:30;12.70;;;9.30;;
1062;SDS011;520;50.932;6.962;2023-11-21T05:28:41;14.90;;;8.50;;
1062;SDS011;520;50.932;6.962;2023-11-21T05:34:49;11.67;;;7.77;;
1062;SDS011;520;50.932;6.962;2023-11-21T05:37:23;14.83;;;7.57;;
1062;SDS011;520;50.932;6.962;2023-11-21T05:43:23;10.87;;;7.77;;
1062;SDS011;520;50.932;6.962;2023-11-21T05:46:10;10.13;;;7.60;;
1062;SDS011;520;50.932;6.962;2023-11-21T05:48:56;12.10;;;7.40;;
1062;SDS011;520;50.932;6.962;2023-11-21T05:51:49;9.93;;;7.60;;
1062;SDS011;520;50.932;6.962;2023-11-21T05:54:43;11.40;;;7.57;;
1062;SDS011;520;50.932;6.962;2023-11-21T05:57:17;10.10;;;8.03;;
1062;SDS011;520;50.932;6.962;2023-11-21T06:00:04;14.37;;;8.07;;
1062;SDS011;520;50.932;6.962;2023-11-21T06:06:16;8.70;;;5.50;;
1062;SDS011;520;50.932;6.962;2023-11-21T06:09:03;10.43;;;6.70;;
1062;SDS011;520;50.932;6.962;2023-11-21T06:11:39;11.00;;;7.43;;
1062;SDS011;520;50.932;6.962;2023-11-21T06:17:18;12.50;;;7.60;;
1062;SDS011;520;50.932;6.962;2023-11-21T06:20:01;10.80;;;6.90;;
1062;SDS011;520;50.932;6.962;2023-11-21T06:22:54;9.43;;;6.77;;
1062;SDS011;520;50.932;6.962;2023-11-21T06:25:38;9.80;;;6.67;;
1062;SDS011;520;50.932;6.962;2023-11-21T06:28:28;10.77;;;7.70;;
1062;SDS011;520;50.932;6.962;2023-11-21T06:31:05;9.23;;;7.07;;
1062;SDS011;520;50.932;6.962;2023-11-21T06:33:46;12.17;;;7.27;;
1062;SDS011;520;50.932;6.962;2023-11-21T06:36:39;13.33;;;8.40;;
1062;SDS011;520;50.932;6.962;2023-11-21T06:39:18;10.27;;;8.03;;
1062;SDS011;520;50.932;6.962;2023-11-21T06:42:29;12.23;;;7.30;;
1062;SDS011;520;50.932;6.962;2023-11-21T06:45:12;15.87;;;9.10;;
1062;SDS011;520;50.932;6.962;2023-11-21T06:47:54;12.70;;;8.47;;
1062;SDS011;520;50.932;6.962;2023-11-21T06:50:54;11.00;;;8.17;;
1062;SDS011;520;50.932;6.962;2023-11-21T06:56:46;15.47;;;8.63;;
1062;SDS011;520;50.932;6.962;2023-11-21T06:59:42;13.67;;;9.03;;
1062;SDS011;520;50.932;6.962;2023-11-21T07:02:37;14.70;;;9.13;;
1062;SDS011;520;50.932;6.962;2023-11-21T07:05:30;13.30;;;9.90;;
1062;SDS011;520;50.932;6.962;2023-11-21T07:11:49;12.07;;;9.00;;
1062;SDS011;520;50.932;6.962;2023-11-21T07:17:44;16.27;;;10.30;;
1062;SDS011;520;50.932;6.962;2023-11-21T07:20:42;14.90;;;10.20;;
1062;SDS011;520;50.932;6.962;2023-11-21T07:23:30;15.83;;;11.20;;
1062;SDS011;520;50.932;6.962;2023-11-21T07:26:23;16.47;;;10.53;;
1062;SDS011;520;50.932;6.962;2023-11-21T07:29:23;17.90;;;12.00;;
1062;SDS011;520;50.932;6.962;2023-11-21T07:32:05;17.53;;;11.47;;
1062;SDS011;520;50.932;6.962;2023-11-21T07:34:45;17.40;;;11.77;;
1062;SDS011;520;50.932;6.962;2023-11-21T07:37:24;20.37;;;13.17;;
1062;SDS011;520;50.932;6.962;2023-11-21T07:40:17;16.27;;;11.40;;
1062;SDS011;520;50.932;6.962;2023-11-21T07:46:12;19.87;;;13.77;;
1062;SDS011;520;50.932;6.962;2023-11-21T07:49:00;16.37;;;11.53;;
1062;SDS011;520;50.932;6.962;2023-11-21T07:51:47;20.27;;;13.57;;
1062;SDS011;520;50.932;6.962;2023-11-21T07:54:36;21.23;;;12.53;;
1062;SDS011;520;50.932;6.962;2023-11-21T07:57:17;19.30;;;11.43;;
1062;SDS011;520;50.932;6.962;2023-11-21T08:00:01;19.30;;;12.93;;
1062;SDS011;520;50.932;6.962;2023-11-21T08:03:13;17.30;;;12.50;;
1062;SDS011;520;50.932;6.962;2023-11-21T08:06:26;18.20;;;12.13;;
1062;SDS011;520;50.932;6.962;2023-11-21T08:09:46;19.80;;;12.10;;
1062;SDS011;520;50.932;6.962;2023-11-21T08:15:23;22.07;;;11.90;;
1062;SDS011;520;50.932;6.962;2023-11-21T08:27:05;19.63;;;12.47;;
1062;SDS011;520;50.932;6.962;2023-11-21T08:29:54;20.97;;;12.70;;
1062;SDS011;520;50.932;6.962;2023-11-21T08:35:52;21.97;;;13.00;;
1062;SDS011;520;50.932;6.962;2023-11-21T08:38:46;26.33;;;14.73;;
1062;SDS011;520;50.932;6.962;2023-11-21T08:41:48;24.13;;;14.23;;
1062;SDS011;520;50.932;6.962;2023-11-21T08:44:42;25.33;;;14.53;;
1062;SDS011;520;50.932;6.962;2023-11-21T08:47:26;23.00;;;14.40;;
1062;SDS011;520;50.932;6.962;2023-11-21T08:50:34;21.43;;;12.60;;
1062;SDS011;520;50.932;6.962;2023-11-21T08:53:21;22.37;;;13.13;;
1062;SDS011;520;50.932;6.962;2023-11-21T08:56:19;20.83;;;12.80;;
1062;SDS011;520;50.932;6.962;2023-11-21T08:59:20;21.50;;;13.60;;
1062;SDS011;520;50.932;6.962;2023-11-21T09:02:29;20.10;;;14.07;;
1062;SDS011;520;50.932;6.962;2023-11-21T09:05:23;24.20;;;14.50;;
1062;SDS011;520;50.932;6.962;2023-11-21T09:08:10;21.53;;;12.07;;
1062;SDS011;520;50.932;6.962;2023-11-21T09:10:48;20.67;;;14.77;;
1062;SDS011;520;50.932;6.962;2023-11-21T09:16:50;31.30;;;16.53;;
1062;SDS011;520;50.932;6.962;2023-11-21T09:19:31;27.60;;;18.43;;
1062;SDS011;520;50.932;6.962;2023-11-21T09:22:11;22.90;;;14.60;;
1062;SDS011;520;50.932;6.962;2023-11-21T09:25:01;25.53;;;14.13;;
1062;SDS011;520;50.932;6.962;2023-11-21T09:27:40;24.03;;;14.80;;
1062;SDS011;520;50.932;6.962;2023-11-21T09:30:34;27.90;;;15.30;;
1062;SDS011;520;50.932;6.962;2023-11-21T09:33:19;26.57;;;17.20;;
1062;SDS011;520;50.932;6.962;2023-11-21T09:36:10;27.10;;;14.83;;
1062;SDS011;520;50.932;6.962;2023-11-21T09:39:17;27.70;;;15.10;;
1062;SDS011;520;50.932;6.962;2023-11-21T09:42:00;24.27;;;16.30;;
1062;SDS011;520;50.932;6.962;2023-11-21T09:44:51;24.97;;;13.80;;
1062;SDS011;520;50.932;6.962;2023-11-21T09:47:43;29.37;;;15.77;;
1062;SDS011;520;50.932;6.962;2023-11-21T09:50:51;25.47;;;15.80;;
1062;SDS011;520;50.932;6.962;2023-11-21T09:53:36;23.67;;;14.27;;
1062;SDS011;520;50.932;6.962;2023-11-21T09:56:18;21.20;;;12.80;;
1062;SDS011;520;50.932;6.962;2023-11-21T09:58:59;21.93;;;14.30;;
1062;SDS011;520;50.932;6.962;2023-11-21T10:02:16;22.90;;;14.83;;
1062;SDS011;520;50.932;6.962;2023-11-21T10:04:58;23.47;;;14.47;;
1062;SDS011;520;50.932;6.962;2023-11-21T10:08:08;23.80;;;14.87;;
1062;SDS011;520;50.932;6.962;2023-11-21T10:11:09;22.93;;;13.47;;
1062;SDS011;520;50.932;6.962;2023-11-21T10:13:51;20.57;;;11.57;;
1062;SDS011;520;50.932;6.962;2023-11-21T10:20:08;14.93;;;10.53;;
1062;SDS011;520;50.932;6.962;2023-11-21T10:22:42;19.70;;;12.63;;
1062;SDS011;520;50.932;6.962;2023-11-21T10:25:25;19.73;;;11.27;;
1062;SDS011;520;50.932;6.962;2023-11-21T10:31:23;21.70;;;12.57;;
1062;SDS011;520;50.932;6.962;2023-11-21T10:34:14;16.07;;;11.80;;
1062;SDS011;520;50.932;6.962;2023-11-21T10:37:01;20.67;;;11.50;;
1062;SDS011;520;50.932;6.962;2023-11-21T10:40:01;24.30;;;13.73;;
1062;SDS011;520;50.932;6.962;2023-11-21T10:42:34;21.57;;;12.73;;
1062;SDS011;520;50.932;6.962;2023-11-21T10:45:27;17.73;;;11.40;;
1062;SDS011;520;50.932;6.962;2023-11-21T10:48:04;22.10;;;12.60;;
1062;SDS011;520;50.932;6.962;2023-11-21T10:51:12;21.73;;;12.60;;
1062;SDS011;520;50.932;6.962;2023-11-21T10:53:45;22.00;;;13.27;;
1062;SDS011;520;50.932;6.962;2023-11-21T10:56:34;19.43;;;11.60;;
1062;SDS011;520;50.932;6.962;2023-11-21T10:59:19;24.00;;;12.60;;
1062;SDS011;520;50.932;6.962;2023-11-21T11:05:08;18.50;;;12.37;;
1062;SDS011;520;50.932;6.962;2023-11-21T11:10:50;22.20;;;13.60;;
1062;SDS011;520;50.932;6.962;2023-11-21T11:20:01;23.23;;;14.40;;
1062;SDS011;520;50.932;6.962;2023-11-21T11:23:32;29.00;;;16.03;;
1062;SDS011;520;50.932;6.962;2023-11-21T11:29:40;30.40;;;15.37;;
1062;SDS011;520;50.932;6.962;2023-11-21T11:36:18;28.43;;;13.90;;
1062;SDS011;520;50.932;6.962;2023-11-21T11:38:55;20.03;;;12.20;;
1062;SDS011;520;50.932;6.962;2023-11-21T11:41:36;24.70;;;12.70;;
1062;SDS011;520;50.932;6.962;2023-11-21T11:50:17;26.17;;;14.30;;
1062;SDS011;520;50.932;6.962;2023-11-21T11:52:47;25.10;;;14.40;;
1062;SDS011;520;50.932;6.962;2023-11-21T11:55:42;25.80;;;12.90;;
1062;SDS011;520;50.932;6.962;2023-11-21T11:58:49;24.20;;;12.37;;
1062;SDS011;520;50.932;6.962;2023-11-21T12:01:36;23.10;;;12.10;;
1062;SDS011;520;50.932;6.962;2023-11-21T12:06:54;23.73;;;12.90;;
1062;SDS011;520;50.932;6.962;2023-11-21T12:09:31;20.20;;;12.07;;
1062;SDS011;520;50.932;6.962;2023-11-21T12:12:29;23.73;;;12.87;;
1062;SDS011;520;50.932;6.962;2023-11-21T12:15:18;21.83;;;12.47;;
1062;SDS011;520;50.932;6.962;2023-11-21T12:18:11;19.43;;;12.43;;
1062;SDS011;520;50.932;6.962;2023-11-21T12:20:45;24.30;;;12.30;;
1062;SDS011;520;50.932;6.962;2023-11-21T12:23:19;23.37;;;12.50;;
1062;SDS011;520;50.932;6.962;2023-11-21T12:26:02;26.53;;;12.83;;
1062;SDS011;520;50.932;6.962;2023-11-21T12:57:09;26.50;;;15.10;;
1062;SDS011;520;50.932;6.962;2023-11-21T12:59:38;30.03;;;15.37;;
1062;SDS011;520;50.932;6.962;2023-11-21T13:02:25;30.80;;;16.70;;
1062;SDS011;520;50.932;6.962;2023-11-21T13:04:54;25.50;;;15.10;;
1062;SDS011;520;50.932;6.962;2023-11-21T13:07:25;25.83;;;15.40;;
1062;SDS011;520;50.932;6.962;2023-11-21T13:09:53;27.37;;;14.90;;
1062;SDS011;520;50.932;6.962;2023-11-21T13:12:24;24.63;;;13.40;;
1062;SDS011;520;50.932;6.962;2023-11-21T13:15:10;25.53;;;14.67;;
1062;SDS011;520;50.932;6.962;2023-11-21T13:18:23;23.13;;;13.40;;
1062;SDS011;520;50.932;6.962;2023-11-21T13:20:57;25.30;;;13.57;;
1062;SDS011;520;50.932;6.962;2023-11-21T13:23:27;28.07;;;15.10;;
1062;SDS011;520;50.932;6.962;2023-11-21T13:25:59;29.03;;;16.10;;
1062;SDS011;520;50.932;6.962;2023-11-21T13:28:34;21.97;;;13.77;;
1062;SDS011;520;50.932;6.962;2023-11-21T13:31:03;21.30;;;12.80;;
1062;SDS011;520;50.932;6.962;2023-11-21T13:33:54;20.97;;;13.80;;
1062;SDS011;520;50.932;6.962;2023-11-21T13:36:25;39.00;;;23.77;;
1062;SDS011;520;50.932;6.962;2023-11-21T13:39:10;23.40;;;13.43;;
1062;SDS011;520;50.932;6.962;2023-11-21T13:41:46;24.33;;;13.27;;
1062;SDS011;520;50.932;6.962;2023-11-21T13:44:17;22.17;;;12.97;;
1062;SDS011;520;50.932;6.962;2023-11-21T13:47:07;22.13;;;13.13;;
1062;SDS011;520;50.932;6.962;2023-11-21T13:49:34;22.07;;;13.70;;
1062;SDS011;520;50.932;6.962;2023-11-21T13:52:07;27.70;;;14.07;;
1062;SDS011;520;50.932;6.962;2023-11-21T13:54:42;25.77;;;15.50;;
1062;SDS011;520;50.932;6.962;2023-11-21T13:57:12;27.70;;;14.13;;
1062;SDS011;520;50.932;6.962;2023-11-21T13:59:45;24.10;;;14.00;;
1062;SDS011;520;50.932;6.962;2023-11-21T14:02:15;26.17;;;14.37;;
1062;SDS011;520;50.932;6.962;2023-11-21T14:04:48;29.10;;;15.37;;
1062;SDS011;520;50.932;6.962;2023-11-21T14:07:28;29.50;;;15.40;;
1062;SDS011;520;50.932;6.962;2023-11-21T14:10:04;27.63;;;15.13;;
1062;SDS011;520;50.932;6.962;2023-11-21T14:12:37;24.90;;;14.33;;
1062;SDS011;520;50.932;6.962;2023-11-21T14:15:09;25.03;;;15.30;;
1062;SDS011;520;50.932;6.962;2023-11-21T14:17:41;28.53;;;17.00;;
1062;SDS011;520;50.932;6.962;2023-11-21T14:20:19;30.10;;;15.67;;
1062;SDS011;520;50.932;6.962;2023-11-21T14:22:53;27.93;;;16.23;;
1062;SDS011;520;50.932;6.962;2023-11-21T14:25:34;30.47;;;15.97;;
1062;SDS011;520;50.932;6.962;2023-11-21T14:28:14;25.43;;;16.07;;
1062;SDS011;520;50.932;6.962;2023-11-21T14:30:46;29.70;;;17.30;;
1062;SDS011;520;50.932;6.962;2023-11-21T14:33:22;31.93;;;18.00;;
1062;SDS011;520;50.932;6.962;2023-11-21T14:35:56;33.23;;;18.50;;
1062;SDS011;520;50.932;6.962;2023-11-21T14:38:26;30.90;;;16.40;;
1062;SDS011;520;50.932;6.962;2023-11-21T14:40:56;29.30;;;17.30;;
1062;SDS011;520;50.932;6.962;2023-11-21T14:43:28;34.90;;;16.30;;
1062;SDS011;520;50.932;6.962;2023-11-21T14:45:59;32.70;;;15.53;;
1062;SDS011;520;50.932;6.962;2023-11-21T14:48:35;22.00;;;14.50;;
1062;SDS011;520;50.932;6.962;2023-11-21T14:51:09;29.10;;;16.60;;
1062;SDS011;520;50.932;6.962;2023-11-21T14:53:54;31.00;;;15.77;;
1062;SDS011;520;50.932;6.962;2023-11-21T14:56:26;23.10;;;14.90;;
1062;SDS011;520;50.932;6.962;2023-11-21T14:59:01;26.33;;;15.80;;
1062;SDS011;520;50.932;6.962;2023-11-21T15:01:38;28.17;;;17.07;;
1062;SDS011;520;50.932;6.962;2023-11-21T15:04:19;29.93;;;16.20;;
1062;SDS011;520;50.932;6.962;2023-11-21T15:07:04;28.83;;;17.40;;
1062;SDS011;520;50.932;6.962;2023-11-21T15:09:34;26.23;;;15.80;;
1062;SDS011;520;50.932;6.962;2023-11-21T15:12:15;25.27;;;14.80;;
1062;SDS011;520;50.932;6.962;2023-11-21T15:14:49;27.87;;;15.30;;
1062;SDS011;520;50.932;6.962;2023-11-21T15:17:22;23.80;;;13.97;;
1062;SDS011;520;50.932;6.962;2023-11-21T15:19:53;22.93;;;13.20;;
1062;SDS011;520;50.932;6.962;2023-11-21T15:22:21;22.40;;;12.90;;
1062;SDS011;520;50.932;6.962;2023-11-21T15:24:49;25.33;;;13.80;;
1062;SDS011;520;50.932;6.962;2023-11-21T15:27:30;24.90;;;13.57;;
1062;SDS011;520;50.932;6.962;2023-11-21T15:29:57;22.73;;;13.70;;
1062;SDS011;520;50.932;6.962;2023-11-21T15:32:27;21.90;;;14.10;;
1062;SDS011;520;50.932;6.962;2023-11-21T15:34:54;23.27;;;14.33;;
1062;SDS011;520;50.932;6.962;2023-11-21T15:37:23;21.97;;;13.77;;
1062;SDS011;520;50.932;6.962;2023-11-21T15:39:59;28.47;;;13.83;;
1062;SDS011;520;50.932;6.962;2023-11-21T15:42:26;30.23;;;15.20;;
1062;SDS011;520;50.932;6.962;2023-11-21T15:44:54;29.77;;;16.30;;
1062;SDS011;520;50.932;6.962;2023-11-21T15:47:21;23.17;;;14.07;;
1062;SDS011;520;50.932;6.962;2023-11-21T15:49:48;31.47;;;16.10;;
1062;SDS011;520;50.932;6.962;2023-11-21T15:52:16;29.53;;;16.70;;
1062;SDS011;520;50.932;6.962;2023-11-21T15:54:44;34.60;;;17.33;;
1062;SDS011;520;50.932;6.962;2023-11-21T15:57:20;33.17;;;17.17;;
1062;SDS011;520;50.932;6.962;2023-11-21T15:59:52;32.33;;;16.93;;
1062;SDS011;520;50.932;6.962;2023-11-21T16:02:22;29.40;;;16.50;;
1062;SDS011;520;50.932;6.962;2023-11-21T16:04:50;26.47;;;14.27;;
1062;SDS011;520;50.932;6.962;2023-11-21T16:07:26;23.97;;;14.03;;
1062;SDS011;520;50.932;6.962;2023-11-21T16:10:12;20.50;;;12.23;;
1062;SDS011;520;50.932;6.962;2023-11-21T16:12:48;19.77;;;12.20;;
1062;SDS011;520;50.932;6.962;2023-11-21T16:15:16;19.07;;;12.50;;
1062;SDS011;520;50.932;6.962;2023-11-21T16:17:50;22.07;;;11.77;;
1062;SDS011;520;50.932;6.962;2023-11-21T16:20:30;22.77;;;11.20;;
1062;SDS011;520;50.932;6.962;2023-11-21T16:23:02;17.07;;;11.53;;
1062;SDS011;520;50.932;6.962;2023-11-21T16:25:30;15.47;;;9.63;;
1062;SDS011;520;50.932;6.962;2023-11-21T16:27:58;16.00;;;9.27;;
1062;SDS011;520;50.932;6.962;2023-11-21T16:30:31;14.87;;;9.90;;
1062;SDS011;520;50.932;6.962;2023-11-21T16:33:04;14.67;;;10.43;;
1062;SDS011;520;50.932;6.962;2023-11-21T16:35:36;12.20;;;8.50;;
1062;SDS011;520;50.932;6.962;2023-11-21T16:38:15;14.03;;;8.80;;
1062;SDS011;520;50.932;6.962;2023-11-21T16:40:48;12.53;;;9.03;;
1062;SDS011;520;50.932;6.962;2023-11-21T16:43:21;12.97;;;8.33;;
1062;SDS011;520;50.932;6.962;2023-11-21T16:45:52;11.93;;;7.80;;
1062;SDS011;520;50.932;6.962;2023-11-21T16:48:23;9.47;;;7.30;;
1062;SDS011;520;50.932;6.962;2023-11-21T16:50:56;11.00;;;7.67;;
1062;SDS011;520;50.932;6.962;2023-11-21T16:53:30;11.90;;;8.27;;
1062;SDS011;520;50.932;6.962;2023-11-21T16:55:59;14.50;;;8.13;;
1062;SDS011;520;50.932;6.962;2023-11-21T16:58:27;11.60;;;8.20;;
1062;SDS011;520;50.932;6.962;2023-11-21T17:00:55;12.03;;;8.43;;
1062;SDS011;520;50.932;6.962;2023-11-21T17:03:24;13.60;;;9.57;;
1062;SDS011;520;50.932;6.962;2023-11-21T17:15:52;13.30;;;8.87;;
1062;SDS011;520;50.932;6.962;2023-11-21T17:18:22;12.90;;;8.03;;
1062;SDS011;520;50.932;6.962;2023-11-21T17:20:52;14.00;;;9.20;;
1062;SDS011;520;50.932;6.962;2023-11-21T17:23:24;13.73;;;8.53;;
1062;SDS011;520;50.932;6.962;2023-11-21T17:25:56;14.03;;;8.87;;
1062;SDS011;520;50.932;6.962;2023-11-21T17:28:24;12.30;;;7.90;;
1062;SDS011;520;50.932;6.962;2023-11-21T17:30:59;12.17;;;8.90;;
1062;SDS011;520;50.932;6.962;2023-11-21T17:33:40;10.30;;;7.33;;
1062;SDS011;520;50.932;6.962;2023-11-21T17:36:13;19.43;;;9.77;;
1062;SDS011;520;50.932;6.962;2023-11-21T17:38:47;11.80;;;8.67;;
1062;SDS011;520;50.932;6.962;2023-11-21T17:44:48;9.80;;;7.13;;
1062;SDS011;520;50.932;6.962;2023-11-21T17:47:19;12.23;;;8.17;;
1062;SDS011;520;50.932;6.962;2023-11-21T17:50:02;10.50;;;7.53;;
1062;SDS011;520;50.932;6.962;2023-11-21T17:52:32;9.30;;;7.20;;
1062;SDS011;520;50.932;6.962;2023-11-21T17:55:05;11.40;;;8.00;;
1062;SDS011;520;50.932;6.962;2023-11-21T17:57:42;12.97;;;9.10;;
1062;SDS011;520;50.932;6.962;2023-11-21T18:00:16;12.93;;;8.73;;
1062;SDS011;520;50.932;6.962;2023-11-21T18:05:49;11.70;;;8.20;;
1062;SDS011;520;50.932;6.962;2023-11-21T18:08:20;10.67;;;7.60;;
1062;SDS011;520;50.932;6.962;2023-11-21T18:10:50;12.93;;;8.43;;
1062;SDS011;520;50.932;6.962;2023-11-21T18:13:35;10.10;;;7.30;;
1062;SDS011;520;50.932;6.962;2023-11-21T18:16:10;10.50;;;6.50;;
1062;SDS011;520;50.932;6.962;2023-11-21T18:18:41;10.57;;;7.30;;
1062;SDS011;520;50.932;6.962;2023-11-21T18:21:09;15.30;;;7.37;;
1062;SDS011;520;50.932;6.962;2023-11-21T18:23:38;8.20;;;6.30;;
1062;SDS011;520;50.932;6.962;2023-11-21T18:26:09;7.97;;;6.17;;
1062;SDS011;520;50.932;6.962;2023-11-21T18:28:53;7.77;;;6.00;;
1062;SDS011;520;50.932;6.962;2023-11-21T18:31:39;8.57;;;6.27;;
1062;SDS011;520;50.932;6.962;2023-11-21T18:34:10;7.10;;;5.90;;
1062;SDS011;520;50.932;6.962;2023-11-21T18:36:39;6.83;;;5.40;;
1062;SDS011;520;50.932;6.962;2023-11-21T18:39:22;5.87;;;5.07;;
1062;SDS011;520;50.932;6.962;2023-11-21T18:41:49;8.17;;;5.93;;
1062;SDS011;520;50.932;6.962;2023-11-21T18:44:22;12.47;;;11.17;;
1062;SDS011;520;50.932;6.962;2023-11-21T18:46:54;4.47;;;4.07;;
1062;SDS011;520;50.932;6.962;2023-11-21T18:49:27;5.10;;;4.00;;
1062;SDS011;520;50.932;6.962;2023-11-21T18:51:58;4.73;;;4.20;;
1062;SDS011;520;50.932;6.962;2023-11-21T18:54:29;3.60;;;3.30;;
1062;SDS011;520;50.932;6.962;2023-11-21T18:56:56;4.17;;;3.77;;
1062;SDS011;520;50.932;6.962;2023-11-21T18:59:26;4.77;;;4.10;;
1062;SDS011;520;50.932;6.962;2023-11-21T19:02:16;4.73;;;3.83;;
1062;SDS011;520;50.932;6.962;2023-11-21T19:05:06;4.77;;;4.37;;
1062;SDS011;520;50.932;6.962;2023-11-21T19:07:37;3.53;;;3.23;;
1062;SDS011;520;50.932;6.962;2023-11-21T19:10:08;3.10;;;2.90;;